Liberty Eagle — WHIA — position and weather

sailwx.info

Track history (hours):
 
Tides and Currents Weather Stations Pressure Air Temp Water Temp Dewpoint Dewpoint Depression Visibility Wind Speed Wind Dir Waves Ship Positions

Liberty Eagle

Owner: Liberty Shipping Group, LLC, Lake Success, NY. More information available from US FCC via Universal Licensing System and Coast Guard Vessel Documentation Center.

Last reported at 2015-Aug-22 12:09 UTC. Time now 2015-Sep-02 10:29 UTC.
Position N 35°47' E 014°44'.
Warning: this ship's position is 10 days out of date.

Type: Cargo ship. MMSI: 369344000.

Date/timePositionNaut miles runAvg speedWind from/ knotsBaromVisibWave heightAir tempDewpointWater temp
2015-Aug-22 12:09N 35°47' E 014°44'711.0
2015-Aug-22 11:33N 35°49' E 014°36'0 0.1
2015-Aug-22 10:17N 35°49' E 014°36'0 0.0
2015-Aug-22 09:29N 35°49' E 014°36'0 0.0
2015-Aug-22 08:33N 35°49' E 014°36'0 0.0
2015-Aug-22 07:30N 35°49' E 014°36'0 0.0
2015-Aug-22 05:32N 35°49' E 014°36'0 0.1
2015-Aug-22 04:32N 35°49' E 014°36'0 0.0
2015-Aug-22 03:32N 35°49' E 014°36'0 0.0
2015-Aug-22 02:32N 35°49' E 014°36'0 0.0
2015-Aug-22 01:32N 35°49' E 014°36'0 0.0
2015-Aug-22 00:32N 35°49' E 014°36'0 0.0
2015-Aug-21 23:32N 35°49' E 014°36'0 0.0
2015-Aug-21 22:32N 35°49' E 014°36'0 0.3
2015-Aug-21 21:33N 35°49' E 014°36'3 2.9
2015-Aug-21 20:33N 35°51' E 014°39'1010.0
2015-Aug-21 19:33N 35°59' E 014°33'1313.3
2015-Aug-21 18:33N 36°06' E 014°18'1313.6
2015-Aug-21 17:33N 36°08' E 014°02'1514.8
2015-Aug-21 16:33N 36°13' E 013°45'1514.9
2015-Aug-21 15:33N 36°21' E 013°28'1515.0
2015-Aug-21 14:33N 36°28' E 013°12'1515.4
2015-Aug-21 13:33N 36°35' E 012°55'1615.7
2015-Aug-21 12:33N 36°43' E 012°38'1615.7
2015-Aug-21 11:33N 36°50' E 012°21'70314.3
2015-Aug-19 10:31N 36°22' W 002°14'1414.8
2015-Aug-19 09:33N 36°20' W 002°31'1514.8
2015-Aug-19 08:31N 36°17' W 002°50'22615.1
2015-Aug-18 17:33N 35°53' W 007°28'1414.0
2015-Aug-18 16:33N 35°53' W 007°45'  
2015-Aug-16 09:33N 37°07' W 023°32'1413.9
2015-Aug-16 08:33N 37°07' W 023°49'1413.6
2015-Aug-16 07:34N 37°06' W 024°06'1413.9
2015-Aug-16 06:34N 37°06' W 024°24'1413.9
2015-Aug-16 05:33N 37°07' W 024°41'1414.1
2015-Aug-16 04:33N 37°08' W 024°59'1414.1
2015-Aug-16 03:34N 37°10' W 025°16'1414.2
2015-Aug-16 02:33N 37°11' W 025°34'1413.9
2015-Aug-16 01:33N 37°12' W 025°51'1413.9
2015-Aug-16 00:34N 37°13' W 026°09'1414.1
2015-Aug-15 23:34N 37°12' W 026°26'1414.2
2015-Aug-15 22:34N 37°13' W 026°44'1414.0
2015-Aug-15 21:33N 37°13' W 027°02'1413.8
2015-Aug-15 20:34N 37°13' W 027°19'1414.0
2015-Aug-15 19:34N 37°12' W 027°37'1413.5
2015-Aug-15 18:33N 37°12' W 027°54'1413.8
2015-Aug-15 17:33N 37°12' W 028°11'1414.3
2015-Aug-15 16:33N 37°11' W 028°29'1514.3
2015-Aug-15 15:31N 37°11' W 028°47'1414.1
2015-Aug-15 14:33N 37°11' W 029°04'1514.3
2015-Aug-15 13:30N 37°10' W 029°23'1414.3
2015-Aug-15 12:32N 37°10' W 029°41'1414.4
2015-Aug-15 11:33N 37°10' W 029°58'1414.2
2015-Aug-15 10:34N 37°09' W 030°16'1614.1
2015-Aug-15 09:24N 37°08' W 030°37'1213.8
2015-Aug-15 08:32N 37°08' W 030°52'1614.0
2015-Aug-15 07:24N 37°07' W 031°12'2613.7
2015-Aug-15 05:32N 37°06' W 031°44'1313.7
2015-Aug-15 04:33N 37°05' W 032°00'7213.9
2015-Aug-14 23:23N 37°00' W 033°30'1214.0
2015-Aug-14 22:33N 36°59' W 033°45'1413.9
2015-Aug-14 21:33N 36°59' W 034°02'1514.0
2015-Aug-14 20:30N 36°57' W 034°20'1514.3
2015-Aug-14 19:26N 36°56' W 034°39'1314.5
2015-Aug-14 18:33N 36°55' W 034°55'  
Track history (hours):
 
Tides and Currents Weather Stations Pressure Air Temp Water Temp Dewpoint Dewpoint Depression Visibility Wind Speed Wind Dir Waves Ship Positions

Liberty Eagle

Owner: Liberty Shipping Group, LLC, Lake Success, NY. More information available from US FCC via Universal Licensing System and Coast Guard Vessel Documentation Center.

Last reported at 2015-Aug-22 12:09 UTC. Time now 2015-Sep-02 10:29 UTC.
Position N 35°47' E 014°44'.
Warning: this ship's position is 10 days out of date.

Type: Cargo ship. MMSI: 369344000.

Date/timePositionNaut miles runAvg speedWind from/ knotsBaromVisibWave heightAir tempDewpointWater temp
2015-Aug-22 12:09N 35°47' E 014°44'711.0
2015-Aug-22 11:33N 35°49' E 014°36'0 0.1
2015-Aug-22 10:17N 35°49' E 014°36'0 0.0
2015-Aug-22 09:29N 35°49' E 014°36'0 0.0
2015-Aug-22 08:33N 35°49' E 014°36'0 0.0
2015-Aug-22 07:30N 35°49' E 014°36'0 0.0
2015-Aug-22 05:32N 35°49' E 014°36'0 0.1
2015-Aug-22 04:32N 35°49' E 014°36'0 0.0
2015-Aug-22 03:32N 35°49' E 014°36'0 0.0
2015-Aug-22 02:32N 35°49' E 014°36'0 0.0
2015-Aug-22 01:32N 35°49' E 014°36'0 0.0
2015-Aug-22 00:32N 35°49' E 014°36'0 0.0
2015-Aug-21 23:32N 35°49' E 014°36'0 0.0
2015-Aug-21 22:32N 35°49' E 014°36'0 0.3
2015-Aug-21 21:33N 35°49' E 014°36'3 2.9
2015-Aug-21 20:33N 35°51' E 014°39'1010.0
2015-Aug-21 19:33N 35°59' E 014°33'1313.3
2015-Aug-21 18:33N 36°06' E 014°18'1313.6
2015-Aug-21 17:33N 36°08' E 014°02'1514.8
2015-Aug-21 16:33N 36°13' E 013°45'1514.9
2015-Aug-21 15:33N 36°21' E 013°28'1515.0
2015-Aug-21 14:33N 36°28' E 013°12'1515.4
2015-Aug-21 13:33N 36°35' E 012°55'1615.7
2015-Aug-21 12:33N 36°43' E 012°38'1615.7
2015-Aug-21 11:33N 36°50' E 012°21'70314.3
2015-Aug-19 10:31N 36°22' W 002°14'1414.8
2015-Aug-19 09:33N 36°20' W 002°31'1514.8
2015-Aug-19 08:31N 36°17' W 002°50'22615.1
2015-Aug-18 17:33N 35°53' W 007°28'1414.0
2015-Aug-18 16:33N 35°53' W 007°45'  
2015-Aug-16 09:33N 37°07' W 023°32'1413.9
2015-Aug-16 08:33N 37°07' W 023°49'1413.6
2015-Aug-16 07:34N 37°06' W 024°06'1413.9
2015-Aug-16 06:34N 37°06' W 024°24'1413.9
2015-Aug-16 05:33N 37°07' W 024°41'1414.1
2015-Aug-16 04:33N 37°08' W 024°59'1414.1
2015-Aug-16 03:34N 37°10' W 025°16'1414.2
2015-Aug-16 02:33N 37°11' W 025°34'1413.9
2015-Aug-16 01:33N 37°12' W 025°51'1413.9
2015-Aug-16 00:34N 37°13' W 026°09'1414.1
2015-Aug-15 23:34N 37°12' W 026°26'1414.2
2015-Aug-15 22:34N 37°13' W 026°44'1414.0
2015-Aug-15 21:33N 37°13' W 027°02'1413.8
2015-Aug-15 20:34N 37°13' W 027°19'1414.0
2015-Aug-15 19:34N 37°12' W 027°37'1413.5
2015-Aug-15 18:33N 37°12' W 027°54'1413.8
2015-Aug-15 17:33N 37°12' W 028°11'1414.3
2015-Aug-15 16:33N 37°11' W 028°29'1514.3
2015-Aug-15 15:31N 37°11' W 028°47'1414.1
2015-Aug-15 14:33N 37°11' W 029°04'1514.3
2015-Aug-15 13:30N 37°10' W 029°23'1414.3
2015-Aug-15 12:32N 37°10' W 029°41'1414.4
2015-Aug-15 11:33N 37°10' W 029°58'1414.2
2015-Aug-15 10:34N 37°09' W 030°16'1614.1
2015-Aug-15 09:24N 37°08' W 030°37'1213.8
2015-Aug-15 08:32N 37°08' W 030°52'1614.0
2015-Aug-15 07:24N 37°07' W 031°12'2613.7
2015-Aug-15 05:32N 37°06' W 031°44'1313.7
2015-Aug-15 04:33N 37°05' W 032°00'7213.9
2015-Aug-14 23:23N 37°00' W 033°30'1214.0
2015-Aug-14 22:33N 36°59' W 033°45'1413.9
2015-Aug-14 21:33N 36°59' W 034°02'1514.0
2015-Aug-14 20:30N 36°57' W 034°20'1514.3
2015-Aug-14 19:26N 36°56' W 034°39'1314.5
2015-Aug-14 18:33N 36°55' W 034°55'  

Dump ship's entire track history